sensor_id;sensor_type;location;lat;lon;timestamp;P1;P2;P0
70436;PMS5003;57877;39.750;-104.894;2023-12-20T00:01:19;0;0;
70436;PMS5003;57877;39.750;-104.894;2023-12-20T00:03:44;0;0;
70436;PMS5003;57877;39.750;-104.894;2023-12-20T00:06:09;0;0;
70436;PMS5003;57877;39.750;-104.894;2023-12-20T00:08:34;0;0;
70436;PMS5003;57877;39.750;-104.894;2023-12-20T00:11:00;0;0;
70436;PMS5003;57877;39.750;-104.894;2023-12-20T00:13:26;0;0;
70436;PMS5003;57877;39.750;-104.894;2023-12-20T00:15:51;0;0;
70436;PMS5003;57877;39.750;-104.894;2023-12-20T00:18:16;0;0;
70436;PMS5003;57877;39.750;-104.894;2023-12-20T00:20:41;0;0;
70436;PMS5003;57877;39.750;-104.894;2023-12-20T00:23:07;0;0;
70436;PMS5003;57877;39.750;-104.894;2023-12-20T00:25:33;0;0;
70436;PMS5003;57877;39.750;-104.894;2023-12-20T00:27:58;0;0;
70436;PMS5003;57877;39.750;-104.894;2023-12-20T00:30:23;0;0;
70436;PMS5003;57877;39.750;-104.894;2023-12-20T00:32:49;0;0;
70436;PMS5003;57877;39.750;-104.894;2023-12-20T00:35:16;0;0;
70436;PMS5003;57877;39.750;-104.894;2023-12-20T00:37:41;0;0;
70436;PMS5003;57877;39.750;-104.894;2023-12-20T00:40:08;0;0;
70436;PMS5003;57877;39.750;-104.894;2023-12-20T00:42:33;0;0;
70436;PMS5003;57877;39.750;-104.894;2023-12-20T00:44:59;8;6;
70436;PMS5003;57877;39.750;-104.894;2023-12-20T00:47:26;6;6;
70436;PMS5003;57877;39.750;-104.894;2023-12-20T00:49:51;7;6;
70436;PMS5003;57877;39.750;-104.894;2023-12-20T00:52:17;10;9;
70436;PMS5003;57877;39.750;-104.894;2023-12-20T00:54:43;23;21;
70436;PMS5003;57877;39.750;-104.894;2023-12-20T00:57:09;20;20;
70436;PMS5003;57877;39.750;-104.894;2023-12-20T00:59:35;10;9;
70436;PMS5003;57877;39.750;-104.894;2023-12-20T01:02:01;15;15;
70436;PMS5003;57877;39.750;-104.894;2023-12-20T01:04:27;19;19;
70436;PMS5003;57877;39.750;-104.894;2023-12-20T01:06:53;21;21;
70436;PMS5003;57877;39.750;-104.894;2023-12-20T01:09:19;4;3;
70436;PMS5003;57877;39.750;-104.894;2023-12-20T01:11:44;0;0;
70436;PMS5003;57877;39.750;-104.894;2023-12-20T01:14:09;1;0;
70436;PMS5003;57877;39.750;-104.894;2023-12-20T01:16:34;2;2;
70436;PMS5003;57877;39.750;-104.894;2023-12-20T01:18:59;2;2;
70436;PMS5003;57877;39.750;-104.894;2023-12-20T01:21:24;3;3;
70436;PMS5003;57877;39.750;-104.894;2023-12-20T01:23:49;4;4;
70436;PMS5003;57877;39.750;-104.894;2023-12-20T01:26:15;3;3;
70436;PMS5003;57877;39.750;-104.894;2023-12-20T01:28:41;1;1;
70436;PMS5003;57877;39.750;-104.894;2023-12-20T01:31:08;4;4;
70436;PMS5003;57877;39.750;-104.894;2023-12-20T01:33:33;2;2;
70436;PMS5003;57877;39.750;-104.894;2023-12-20T01:35:59;3;3;
70436;PMS5003;57877;39.750;-104.894;2023-12-20T01:38:25;2;1;
70436;PMS5003;57877;39.750;-104.894;2023-12-20T01:40:51;2;2;
70436;PMS5003;57877;39.750;-104.894;2023-12-20T01:43:17;4;4;
70436;PMS5003;57877;39.750;-104.894;2023-12-20T01:45:43;4;4;
70436;PMS5003;57877;39.750;-104.894;2023-12-20T01:48:09;2;2;
70436;PMS5003;57877;39.750;-104.894;2023-12-20T01:50:36;2;2;
70436;PMS5003;57877;39.750;-104.894;2023-12-20T01:53:01;5;4;
70436;PMS5003;57877;39.750;-104.894;2023-12-20T01:55:27;3;2;
70436;PMS5003;57877;39.750;-104.894;2023-12-20T01:57:53;3;3;
70436;PMS5003;57877;39.750;-104.894;2023-12-20T02:00:19;4;4;
70436;PMS5003;57877;39.750;-104.894;2023-12-20T02:02:45;3;3;
70436;PMS5003;57877;39.750;-104.894;2023-12-20T02:05:11;2;2;
70436;PMS5003;57877;39.750;-104.894;2023-12-20T02:07:37;1;1;
70436;PMS5003;57877;39.750;-104.894;2023-12-20T02:10:03;0;0;
70436;PMS5003;57877;39.750;-104.894;2023-12-20T02:12:29;2;2;
70436;PMS5003;57877;39.750;-104.894;2023-12-20T02:14:55;4;4;
70436;PMS5003;57877;39.750;-104.894;2023-12-20T02:17:21;2;2;
70436;PMS5003;57877;39.750;-104.894;2023-12-20T02:19:47;1;1;
70436;PMS5003;57877;39.750;-104.894;2023-12-20T02:22:13;1;1;
70436;PMS5003;57877;39.750;-104.894;2023-12-20T02:24:39;1;1;
70436;PMS5003;57877;39.750;-104.894;2023-12-20T02:27:04;3;2;
70436;PMS5003;57877;39.750;-104.894;2023-12-20T02:29:30;7;6;
70436;PMS5003;57877;39.750;-104.894;2023-12-20T02:31:56;7;7;
70436;PMS5003;57877;39.750;-104.894;2023-12-20T02:34:22;5;4;
70436;PMS5003;57877;39.750;-104.894;2023-12-20T02:36:48;2;2;
70436;PMS5003;57877;39.750;-104.894;2023-12-20T02:39:14;3;2;
70436;PMS5003;57877;39.750;-104.894;2023-12-20T02:41:40;2;2;
70436;PMS5003;57877;39.750;-104.894;2023-12-20T02:44:06;2;2;
70436;PMS5003;57877;39.750;-104.894;2023-12-20T02:46:31;1;1;
70436;PMS5003;57877;39.750;-104.894;2023-12-20T02:48:57;2;1;
70436;PMS5003;57877;39.750;-104.894;2023-12-20T02:51:23;1;1;
70436;PMS5003;57877;39.750;-104.894;2023-12-20T02:53:49;3;2;
70436;PMS5003;57877;39.750;-104.894;2023-12-20T02:56:15;0;0;
70436;PMS5003;57877;39.750;-104.894;2023-12-20T02:58:39;0;0;
70436;PMS5003;57877;39.750;-104.894;2023-12-20T03:01:04;1;0;
70436;PMS5003;57877;39.750;-104.894;2023-12-20T03:03:29;2;1;
70436;PMS5003;57877;39.750;-104.894;2023-12-20T03:05:55;0;0;
70436;PMS5003;57877;39.750;-104.894;2023-12-20T03:08:19;4;3;
70436;PMS5003;57877;39.750;-104.894;2023-12-20T03:10:45;19;18;
70436;PMS5003;57877;39.750;-104.894;2023-12-20T03:13:10;5;5;
70436;PMS5003;57877;39.750;-104.894;2023-12-20T03:15:36;15;14;
70436;PMS5003;57877;39.750;-104.894;2023-12-20T03:18:01;3;3;
70436;PMS5003;57877;39.750;-104.894;2023-12-20T03:20:26;7;7;
70436;PMS5003;57877;39.750;-104.894;2023-12-20T03:22:51;7;7;
70436;PMS5003;57877;39.750;-104.894;2023-12-20T03:25:17;12;9;
70436;PMS5003;57877;39.750;-104.894;2023-12-20T03:27:42;27;26;
70436;PMS5003;57877;39.750;-104.894;2023-12-20T03:30:07;22;21;
70436;PMS5003;57877;39.750;-104.894;2023-12-20T03:32:32;12;9;
70436;PMS5003;57877;39.750;-104.894;2023-12-20T03:34:57;11;10;
70436;PMS5003;57877;39.750;-104.894;2023-12-20T03:37:22;11;9;
70436;PMS5003;57877;39.750;-104.894;2023-12-20T03:39:47;6;6;
70436;PMS5003;57877;39.750;-104.894;2023-12-20T03:42:12;3;3;
70436;PMS5003;57877;39.750;-104.894;2023-12-20T03:44:38;5;5;
70436;PMS5003;57877;39.750;-104.894;2023-12-20T03:47:02;4;4;
70436;PMS5003;57877;39.750;-104.894;2023-12-20T03:49:27;5;5;
70436;PMS5003;57877;39.750;-104.894;2023-12-20T03:51:52;5;4;
70436;PMS5003;57877;39.750;-104.894;2023-12-20T03:54:17;4;4;
70436;PMS5003;57877;39.750;-104.894;2023-12-20T03:56:42;3;3;
70436;PMS5003;57877;39.750;-104.894;2023-12-20T03:59:07;0;0;
70436;PMS5003;57877;39.750;-104.894;2023-12-20T04:01:32;1;1;
70436;PMS5003;57877;39.750;-104.894;2023-12-20T04:03:57;3;3;
70436;PMS5003;57877;39.750;-104.894;2023-12-20T04:06:22;1;1;
70436;PMS5003;57877;39.750;-104.894;2023-12-20T04:08:47;1;1;
70436;PMS5003;57877;39.750;-104.894;2023-12-20T04:11:12;4;4;
70436;PMS5003;57877;39.750;-104.894;2023-12-20T04:13:37;0;0;
70436;PMS5003;57877;39.750;-104.894;2023-12-20T04:16:03;0;0;
70436;PMS5003;57877;39.750;-104.894;2023-12-20T04:18:27;0;0;
70436;PMS5003;57877;39.750;-104.894;2023-12-20T04:20:53;1;0;
70436;PMS5003;57877;39.750;-104.894;2023-12-20T04:23:17;1;1;
70436;PMS5003;57877;39.750;-104.894;2023-12-20T04:25:43;2;1;
70436;PMS5003;57877;39.750;-104.894;2023-12-20T04:28:09;2;2;
70436;PMS5003;57877;39.750;-104.894;2023-12-20T04:30:34;1;0;
70436;PMS5003;57877;39.750;-104.894;2023-12-20T04:32:59;1;1;
70436;PMS5003;57877;39.750;-104.894;2023-12-20T04:35:24;0;0;
70436;PMS5003;57877;39.750;-104.894;2023-12-20T04:37:50;1;1;
70436;PMS5003;57877;39.750;-104.894;2023-12-20T04:40:15;0;0;
70436;PMS5003;57877;39.750;-104.894;2023-12-20T04:42:40;0;0;
70436;PMS5003;57877;39.750;-104.894;2023-12-20T04:45:05;1;0;
70436;PMS5003;57877;39.750;-104.894;2023-12-20T04:47:30;0;0;
70436;PMS5003;57877;39.750;-104.894;2023-12-20T04:49:56;0;0;
70436;PMS5003;57877;39.750;-104.894;2023-12-20T04:52:22;0;0;
70436;PMS5003;57877;39.750;-104.894;2023-12-20T04:54:48;1;1;
70436;PMS5003;57877;39.750;-104.894;2023-12-20T04:57:14;0;0;
70436;PMS5003;57877;39.750;-104.894;2023-12-20T04:59:40;0;0;
70436;PMS5003;57877;39.750;-104.894;2023-12-20T05:02:06;0;0;
70436;PMS5003;57877;39.750;-104.894;2023-12-20T05:04:32;0;0;
70436;PMS5003;57877;39.750;-104.894;2023-12-20T05:06:58;0;0;
70436;PMS5003;57877;39.750;-104.894;2023-12-20T05:09:24;0;0;
70436;PMS5003;57877;39.750;-104.894;2023-12-20T05:11:50;0;0;
70436;PMS5003;57877;39.750;-104.894;2023-12-20T05:14:16;0;0;
70436;PMS5003;57877;39.750;-104.894;2023-12-20T05:16:42;0;0;
70436;PMS5003;57877;39.750;-104.894;2023-12-20T05:19:07;0;0;
70436;PMS5003;57877;39.750;-104.894;2023-12-20T05:21:34;0;0;
70436;PMS5003;57877;39.750;-104.894;2023-12-20T05:23:59;0;0;
70436;PMS5003;57877;39.750;-104.894;2023-12-20T05:26:25;0;0;
70436;PMS5003;57877;39.750;-104.894;2023-12-20T05:28:51;0;0;
70436;PMS5003;57877;39.750;-104.894;2023-12-20T05:31:17;0;0;
70436;PMS5003;57877;39.750;-104.894;2023-12-20T05:33:43;0;0;
70436;PMS5003;57877;39.750;-104.894;2023-12-20T05:36:09;0;0;
70436;PMS5003;57877;39.750;-104.894;2023-12-20T05:38:35;0;0;
70436;PMS5003;57877;39.750;-104.894;2023-12-20T05:41:01;0;0;
70436;PMS5003;57877;39.750;-104.894;2023-12-20T05:43:27;0;0;
70436;PMS5003;57877;39.750;-104.894;2023-12-20T05:45:52;0;0;
70436;PMS5003;57877;39.750;-104.894;2023-12-20T05:48:18;0;0;
70436;PMS5003;57877;39.750;-104.894;2023-12-20T05:50:44;0;0;
70436;PMS5003;57877;39.750;-104.894;2023-12-20T05:53:10;0;0;
70436;PMS5003;57877;39.750;-104.894;2023-12-20T05:55:35;0;0;
70436;PMS5003;57877;39.750;-104.894;2023-12-20T05:58:01;0;0;
70436;PMS5003;57877;39.750;-104.894;2023-12-20T06:00:26;0;0;
70436;PMS5003;57877;39.750;-104.894;2023-12-20T06:02:51;0;0;
70436;PMS5003;57877;39.750;-104.894;2023-12-20T06:05:17;0;0;
70436;PMS5003;57877;39.750;-104.894;2023-12-20T06:07:43;0;0;
70436;PMS5003;57877;39.750;-104.894;2023-12-20T06:10:09;0;0;
70436;PMS5003;57877;39.750;-104.894;2023-12-20T06:12:35;0;0;
70436;PMS5003;57877;39.750;-104.894;2023-12-20T06:15:02;0;0;
70436;PMS5003;57877;39.750;-104.894;2023-12-20T06:17:27;0;0;
70436;PMS5003;57877;39.750;-104.894;2023-12-20T06:19:53;0;0;
70436;PMS5003;57877;39.750;-104.894;2023-12-20T06:22:20;0;0;
70436;PMS5003;57877;39.750;-104.894;2023-12-20T06:24:44;0;0;
70436;PMS5003;57877;39.750;-104.894;2023-12-20T06:27:09;0;0;
70436;PMS5003;57877;39.750;-104.894;2023-12-20T06:29:35;0;0;
70436;PMS5003;57877;39.750;-104.894;2023-12-20T06:32:02;0;0;
70436;PMS5003;57877;39.750;-104.894;2023-12-20T06:34:28;0;0;
70436;PMS5003;57877;39.750;-104.894;2023-12-20T06:36:54;0;0;
70436;PMS5003;57877;39.750;-104.894;2023-12-20T06:39:20;0;0;
70436;PMS5003;57877;39.750;-104.894;2023-12-20T06:41:46;0;0;
70436;PMS5003;57877;39.750;-104.894;2023-12-20T06:44:11;0;0;
70436;PMS5003;57877;39.750;-104.894;2023-12-20T06:46:36;0;0;
70436;PMS5003;57877;39.750;-104.894;2023-12-20T06:49:02;0;0;
70436;PMS5003;57877;39.750;-104.894;2023-12-20T06:51:28;0;0;
70436;PMS5003;57877;39.750;-104.894;2023-12-20T06:53:53;0;0;
70436;PMS5003;57877;39.750;-104.894;2023-12-20T06:56:19;0;0;
70436;PMS5003;57877;39.750;-104.894;2023-12-20T06:58:45;0;0;
70436;PMS5003;57877;39.750;-104.894;2023-12-20T07:01:11;0;0;
70436;PMS5003;57877;39.750;-104.894;2023-12-20T07:03:37;0;0;
70436;PMS5003;57877;39.750;-104.894;2023-12-20T07:06:03;0;0;
70436;PMS5003;57877;39.750;-104.894;2023-12-20T07:08:29;0;0;
70436;PMS5003;57877;39.750;-104.894;2023-12-20T07:10:55;0;0;
70436;PMS5003;57877;39.750;-104.894;2023-12-20T07:13:21;0;0;
70436;PMS5003;57877;39.750;-104.894;2023-12-20T07:15:47;0;0;
70436;PMS5003;57877;39.750;-104.894;2023-12-20T07:18:12;0;0;
70436;PMS5003;57877;39.750;-104.894;2023-12-20T07:20:37;0;0;
70436;PMS5003;57877;39.750;-104.894;2023-12-20T07:23:07;0;0;
70436;PMS5003;57877;39.750;-104.894;2023-12-20T07:25:27;0;0;
70436;PMS5003;57877;39.750;-104.894;2023-12-20T07:27:53;0;0;
70436;PMS5003;57877;39.750;-104.894;2023-12-20T07:30:18;0;0;
70436;PMS5003;57877;39.750;-104.894;2023-12-20T07:32:43;0;0;
70436;PMS5003;57877;39.750;-104.894;2023-12-20T07:35:09;0;0;
70436;PMS5003;57877;39.750;-104.894;2023-12-20T07:37:34;0;0;
70436;PMS5003;57877;39.750;-104.894;2023-12-20T07:39:59;0;0;
70436;PMS5003;57877;39.750;-104.894;2023-12-20T07:42:25;0;0;
70436;PMS5003;57877;39.750;-104.894;2023-12-20T07:44:50;0;0;
70436;PMS5003;57877;39.750;-104.894;2023-12-20T07:47:15;0;0;
70436;PMS5003;57877;39.750;-104.894;2023-12-20T07:49:40;0;0;
70436;PMS5003;57877;39.750;-104.894;2023-12-20T07:52:05;0;0;
70436;PMS5003;57877;39.750;-104.894;2023-12-20T07:54:31;0;0;
70436;PMS5003;57877;39.750;-104.894;2023-12-20T07:56:57;0;0;
70436;PMS5003;57877;39.750;-104.894;2023-12-20T07:59:22;0;0;
70436;PMS5003;57877;39.750;-104.894;2023-12-20T08:01:47;0;0;
70436;PMS5003;57877;39.750;-104.894;2023-12-20T08:04:12;0;0;
70436;PMS5003;57877;39.750;-104.894;2023-12-20T08:06:37;0;0;
70436;PMS5003;57877;39.750;-104.894;2023-12-20T08:09:02;0;0;
70436;PMS5003;57877;39.750;-104.894;2023-12-20T08:11:27;0;0;
70436;PMS5003;57877;39.750;-104.894;2023-12-20T08:13:52;0;0;
70436;PMS5003;57877;39.750;-104.894;2023-12-20T08:16:17;0;0;
70436;PMS5003;57877;39.750;-104.894;2023-12-20T08:18:42;0;0;
70436;PMS5003;57877;39.750;-104.894;2023-12-20T08:21:07;0;0;
70436;PMS5003;57877;39.750;-104.894;2023-12-20T08:23:32;0;0;
70436;PMS5003;57877;39.750;-104.894;2023-12-20T08:25:57;0;0;
70436;PMS5003;57877;39.750;-104.894;2023-12-20T08:28:23;0;0;
70436;PMS5003;57877;39.750;-104.894;2023-12-20T08:30:49;0;0;
70436;PMS5003;57877;39.750;-104.894;2023-12-20T08:33:15;0;0;
70436;PMS5003;57877;39.750;-104.894;2023-12-20T08:35:41;0;0;
70436;PMS5003;57877;39.750;-104.894;2023-12-20T08:38:06;0;0;
70436;PMS5003;57877;39.750;-104.894;2023-12-20T08:40:32;0;0;
70436;PMS5003;57877;39.750;-104.894;2023-12-20T08:42:56;0;0;
70436;PMS5003;57877;39.750;-104.894;2023-12-20T08:45:21;0;0;
70436;PMS5003;57877;39.750;-104.894;2023-12-20T08:47:47;0;0;
70436;PMS5003;57877;39.750;-104.894;2023-12-20T08:50:12;0;0;
70436;PMS5003;57877;39.750;-104.894;2023-12-20T08:52:36;0;0;
70436;PMS5003;57877;39.750;-104.894;2023-12-20T08:55:01;0;0;
70436;PMS5003;57877;39.750;-104.894;2023-12-20T08:57:28;0;0;
70436;PMS5003;57877;39.750;-104.894;2023-12-20T08:59:53;0;0;
70436;PMS5003;57877;39.750;-104.894;2023-12-20T09:02:20;0;0;
70436;PMS5003;57877;39.750;-104.894;2023-12-20T09:04:46;0;0;
70436;PMS5003;57877;39.750;-104.894;2023-12-20T09:09:38;0;0;
70436;PMS5003;57877;39.750;-104.894;2023-12-20T09:12:04;0;0;
70436;PMS5003;57877;39.750;-104.894;2023-12-20T09:14:30;0;0;
70436;PMS5003;57877;39.750;-104.894;2023-12-20T09:16:56;0;0;
70436;PMS5003;57877;39.750;-104.894;2023-12-20T09:19:21;0;0;
70436;PMS5003;57877;39.750;-104.894;2023-12-20T09:21:46;0;0;
70436;PMS5003;57877;39.750;-104.894;2023-12-20T09:24:12;0;0;
70436;PMS5003;57877;39.750;-104.894;2023-12-20T09:26:38;0;0;
70436;PMS5003;57877;39.750;-104.894;2023-12-20T09:29:03;0;0;
70436;PMS5003;57877;39.750;-104.894;2023-12-20T09:31:28;0;0;
70436;PMS5003;57877;39.750;-104.894;2023-12-20T09:33:53;0;0;
70436;PMS5003;57877;39.750;-104.894;2023-12-20T09:36:19;0;0;
70436;PMS5003;57877;39.750;-104.894;2023-12-20T09:38:44;0;0;
70436;PMS5003;57877;39.750;-104.894;2023-12-20T09:41:09;0;0;
70436;PMS5003;57877;39.750;-104.894;2023-12-20T09:43:35;0;0;
70436;PMS5003;57877;39.750;-104.894;2023-12-20T09:46:00;0;0;
70436;PMS5003;57877;39.750;-104.894;2023-12-20T09:48:24;0;0;
70436;PMS5003;57877;39.750;-104.894;2023-12-20T09:50:49;0;0;
70436;PMS5003;57877;39.750;-104.894;2023-12-20T09:53:15;0;0;
70436;PMS5003;57877;39.750;-104.894;2023-12-20T09:55:39;0;0;
70436;PMS5003;57877;39.750;-104.894;2023-12-20T09:58:04;0;0;
70436;PMS5003;57877;39.750;-104.894;2023-12-20T10:00:29;0;0;
70436;PMS5003;57877;39.750;-104.894;2023-12-20T10:02:56;0;0;
70436;PMS5003;57877;39.750;-104.894;2023-12-20T10:05:20;0;0;
70436;PMS5003;57877;39.750;-104.894;2023-12-20T10:07:46;0;0;
70436;PMS5003;57877;39.750;-104.894;2023-12-20T10:10:10;0;0;
70436;PMS5003;57877;39.750;-104.894;2023-12-20T10:12:35;0;0;
70436;PMS5003;57877;39.750;-104.894;2023-12-20T10:15:00;0;0;
70436;PMS5003;57877;39.750;-104.894;2023-12-20T10:17:26;0;0;
70436;PMS5003;57877;39.750;-104.894;2023-12-20T10:19:50;0;0;
70436;PMS5003;57877;39.750;-104.894;2023-12-20T10:22:15;0;0;
70436;PMS5003;57877;39.750;-104.894;2023-12-20T10:24:41;0;0;
70436;PMS5003;57877;39.750;-104.894;2023-12-20T10:27:06;0;0;
70436;PMS5003;57877;39.750;-104.894;2023-12-20T10:29:32;0;0;
70436;PMS5003;57877;39.750;-104.894;2023-12-20T10:31:55;0;0;
70436;PMS5003;57877;39.750;-104.894;2023-12-20T10:34:20;0;0;
70436;PMS5003;57877;39.750;-104.894;2023-12-20T10:36:46;0;0;
70436;PMS5003;57877;39.750;-104.894;2023-12-20T10:39:11;0;0;
70436;PMS5003;57877;39.750;-104.894;2023-12-20T10:41:37;0;0;
70436;PMS5003;57877;39.750;-104.894;2023-12-20T10:44:02;1;0;
70436;PMS5003;57877;39.750;-104.894;2023-12-20T10:46:28;0;0;
70436;PMS5003;57877;39.750;-104.894;2023-12-20T10:48:54;0;0;
70436;PMS5003;57877;39.750;-104.894;2023-12-20T10:51:19;0;0;
70436;PMS5003;57877;39.750;-104.894;2023-12-20T10:53:44;0;0;
70436;PMS5003;57877;39.750;-104.894;2023-12-20T10:56:09;0;0;
70436;PMS5003;57877;39.750;-104.894;2023-12-20T10:58:34;0;0;
70436;PMS5003;57877;39.750;-104.894;2023-12-20T11:00:59;0;0;
70436;PMS5003;57877;39.750;-104.894;2023-12-20T11:03:25;0;0;
70436;PMS5003;57877;39.750;-104.894;2023-12-20T11:05:53;0;0;
70436;PMS5003;57877;39.750;-104.894;2023-12-20T11:08:19;0;0;
70436;PMS5003;57877;39.750;-104.894;2023-12-20T11:10:43;0;0;
70436;PMS5003;57877;39.750;-104.894;2023-12-20T11:13:08;0;0;
70436;PMS5003;57877;39.750;-104.894;2023-12-20T11:15:32;0;0;
70436;PMS5003;57877;39.750;-104.894;2023-12-20T11:17:58;0;0;
70436;PMS5003;57877;39.750;-104.894;2023-12-20T11:20:23;0;0;
70436;PMS5003;57877;39.750;-104.894;2023-12-20T11:22:52;0;0;
70436;PMS5003;57877;39.750;-104.894;2023-12-20T11:25:13;0;0;
70436;PMS5003;57877;39.750;-104.894;2023-12-20T11:27:40;0;0;
70436;PMS5003;57877;39.750;-104.894;2023-12-20T11:30:04;0;0;
70436;PMS5003;57877;39.750;-104.894;2023-12-20T11:32:29;0;0;
70436;PMS5003;57877;39.750;-104.894;2023-12-20T11:34:55;0;0;
70436;PMS5003;57877;39.750;-104.894;2023-12-20T11:37:19;0;0;
70436;PMS5003;57877;39.750;-104.894;2023-12-20T11:39:44;0;0;
70436;PMS5003;57877;39.750;-104.894;2023-12-20T11:42:10;0;0;
70436;PMS5003;57877;39.750;-104.894;2023-12-20T11:44:35;0;0;
70436;PMS5003;57877;39.750;-104.894;2023-12-20T11:46:59;0;0;
70436;PMS5003;57877;39.750;-104.894;2023-12-20T11:49:25;0;0;
70436;PMS5003;57877;39.750;-104.894;2023-12-20T11:51:49;0;0;
70436;PMS5003;57877;39.750;-104.894;2023-12-20T11:54:15;0;0;
70436;PMS5003;57877;39.750;-104.894;2023-12-20T11:56:39;0;0;
70436;PMS5003;57877;39.750;-104.894;2023-12-20T11:59:04;0;0;
70436;PMS5003;57877;39.750;-104.894;2023-12-20T12:01:29;0;0;
70436;PMS5003;57877;39.750;-104.894;2023-12-20T12:06:20;0;0;
70436;PMS5003;57877;39.750;-104.894;2023-12-20T12:08:45;0;0;
70436;PMS5003;57877;39.750;-104.894;2023-12-20T12:11:12;0;0;
70436;PMS5003;57877;39.750;-104.894;2023-12-20T12:13:36;0;0;
70436;PMS5003;57877;39.750;-104.894;2023-12-20T12:16:02;1;1;
70436;PMS5003;57877;39.750;-104.894;2023-12-20T12:18:32;0;0;
70436;PMS5003;57877;39.750;-104.894;2023-12-20T12:23:22;0;0;
70436;PMS5003;57877;39.750;-104.894;2023-12-20T12:25:42;0;0;
70436;PMS5003;57877;39.750;-104.894;2023-12-20T12:28:07;0;0;
70436;PMS5003;57877;39.750;-104.894;2023-12-20T12:30:32;0;0;
70436;PMS5003;57877;39.750;-104.894;2023-12-20T12:32:57;0;0;
70436;PMS5003;57877;39.750;-104.894;2023-12-20T12:35:22;0;0;
70436;PMS5003;57877;39.750;-104.894;2023-12-20T12:37:47;1;0;
70436;PMS5003;57877;39.750;-104.894;2023-12-20T12:40:13;0;0;
70436;PMS5003;57877;39.750;-104.894;2023-12-20T12:42:37;0;0;
70436;PMS5003;57877;39.750;-104.894;2023-12-20T12:45:03;0;0;
70436;PMS5003;57877;39.750;-104.894;2023-12-20T12:47:28;0;0;
70436;PMS5003;57877;39.750;-104.894;2023-12-20T12:49:53;0;0;
70436;PMS5003;57877;39.750;-104.894;2023-12-20T12:52:19;0;0;
70436;PMS5003;57877;39.750;-104.894;2023-12-20T12:54:43;0;0;
70436;PMS5003;57877;39.750;-104.894;2023-12-20T12:57:08;1;1;
70436;PMS5003;57877;39.750;-104.894;2023-12-20T12:59:33;0;0;
70436;PMS5003;57877;39.750;-104.894;2023-12-20T13:01:58;0;0;
70436;PMS5003;57877;39.750;-104.894;2023-12-20T13:04:23;1;1;
70436;PMS5003;57877;39.750;-104.894;2023-12-20T13:06:48;1;0;
70436;PMS5003;57877;39.750;-104.894;2023-12-20T13:09:14;0;0;
70436;PMS5003;57877;39.750;-104.894;2023-12-20T13:11:39;0;0;
70436;PMS5003;57877;39.750;-104.894;2023-12-20T13:14:05;0;0;
70436;PMS5003;57877;39.750;-104.894;2023-12-20T13:16:30;2;2;
70436;PMS5003;57877;39.750;-104.894;2023-12-20T13:18:55;1;1;
70436;PMS5003;57877;39.750;-104.894;2023-12-20T13:21:20;2;2;
70436;PMS5003;57877;39.750;-104.894;2023-12-20T13:23:45;1;1;
70436;PMS5003;57877;39.750;-104.894;2023-12-20T13:26:10;0;0;
70436;PMS5003;57877;39.750;-104.894;2023-12-20T13:28:35;0;0;
70436;PMS5003;57877;39.750;-104.894;2023-12-20T13:31:00;0;0;
70436;PMS5003;57877;39.750;-104.894;2023-12-20T13:33:25;1;1;
70436;PMS5003;57877;39.750;-104.894;2023-12-20T13:35:51;0;0;
70436;PMS5003;57877;39.750;-104.894;2023-12-20T13:38:16;0;0;
70436;PMS5003;57877;39.750;-104.894;2023-12-20T13:40:41;0;0;
70436;PMS5003;57877;39.750;-104.894;2023-12-20T13:43:06;0;0;
70436;PMS5003;57877;39.750;-104.894;2023-12-20T13:45:31;1;1;
70436;PMS5003;57877;39.750;-104.894;2023-12-20T13:47:56;0;0;
70436;PMS5003;57877;39.750;-104.894;2023-12-20T13:50:21;0;0;
70436;PMS5003;57877;39.750;-104.894;2023-12-20T13:52:46;1;1;
70436;PMS5003;57877;39.750;-104.894;2023-12-20T13:55:11;1;0;
70436;PMS5003;57877;39.750;-104.894;2023-12-20T13:57:36;1;1;
70436;PMS5003;57877;39.750;-104.894;2023-12-20T14:00:01;0;0;
70436;PMS5003;57877;39.750;-104.894;2023-12-20T14:02:26;1;1;
70436;PMS5003;57877;39.750;-104.894;2023-12-20T14:04:51;0;0;
70436;PMS5003;57877;39.750;-104.894;2023-12-20T14:07:16;0;0;
70436;PMS5003;57877;39.750;-104.894;2023-12-20T14:09:41;0;0;
70436;PMS5003;57877;39.750;-104.894;2023-12-20T14:12:07;0;0;
70436;PMS5003;57877;39.750;-104.894;2023-12-20T14:14:31;0;0;
70436;PMS5003;57877;39.750;-104.894;2023-12-20T14:16:56;0;0;
70436;PMS5003;57877;39.750;-104.894;2023-12-20T14:19:21;0;0;
70436;PMS5003;57877;39.750;-104.894;2023-12-20T14:21:46;2;2;
70436;PMS5003;57877;39.750;-104.894;2023-12-20T14:24:12;1;1;
70436;PMS5003;57877;39.750;-104.894;2023-12-20T14:26:37;3;2;
70436;PMS5003;57877;39.750;-104.894;2023-12-20T14:29:01;1;1;
70436;PMS5003;57877;39.750;-104.894;2023-12-20T14:31:26;0;0;
70436;PMS5003;57877;39.750;-104.894;2023-12-20T14:33:52;0;0;
70436;PMS5003;57877;39.750;-104.894;2023-12-20T14:36:17;1;1;
70436;PMS5003;57877;39.750;-104.894;2023-12-20T14:38:42;0;0;
70436;PMS5003;57877;39.750;-104.894;2023-12-20T14:41:07;2;2;
70436;PMS5003;57877;39.750;-104.894;2023-12-20T14:43:32;1;1;
70436;PMS5003;57877;39.750;-104.894;2023-12-20T14:45:57;0;0;
70436;PMS5003;57877;39.750;-104.894;2023-12-20T14:48:22;1;0;
70436;PMS5003;57877;39.750;-104.894;2023-12-20T14:50:47;1;0;
70436;PMS5003;57877;39.750;-104.894;2023-12-20T14:53:13;2;2;
70436;PMS5003;57877;39.750;-104.894;2023-12-20T14:55:38;1;1;
70436;PMS5003;57877;39.750;-104.894;2023-12-20T14:58:04;2;0;
70436;PMS5003;57877;39.750;-104.894;2023-12-20T15:00:30;1;1;
70436;PMS5003;57877;39.750;-104.894;2023-12-20T15:02:55;3;3;
70436;PMS5003;57877;39.750;-104.894;2023-12-20T15:05:20;1;1;
70436;PMS5003;57877;39.750;-104.894;2023-12-20T15:07:46;1;1;
70436;PMS5003;57877;39.750;-104.894;2023-12-20T15:10:11;3;3;
70436;PMS5003;57877;39.750;-104.894;2023-12-20T15:12:37;2;2;
70436;PMS5003;57877;39.750;-104.894;2023-12-20T15:15:03;3;3;
70436;PMS5003;57877;39.750;-104.894;2023-12-20T15:17:28;3;3;
70436;PMS5003;57877;39.750;-104.894;2023-12-20T15:19:54;2;2;
70436;PMS5003;57877;39.750;-104.894;2023-12-20T15:22:19;2;2;
70436;PMS5003;57877;39.750;-104.894;2023-12-20T15:24:44;3;3;
70436;PMS5003;57877;39.750;-104.894;2023-12-20T15:27:09;0;0;
70436;PMS5003;57877;39.750;-104.894;2023-12-20T15:29:34;1;1;
70436;PMS5003;57877;39.750;-104.894;2023-12-20T15:31:59;1;1;
70436;PMS5003;57877;39.750;-104.894;2023-12-20T15:34:24;2;1;
70436;PMS5003;57877;39.750;-104.894;2023-12-20T15:36:49;0;0;
70436;PMS5003;57877;39.750;-104.894;2023-12-20T15:39:15;1;1;
70436;PMS5003;57877;39.750;-104.894;2023-12-20T15:41:40;0;0;
70436;PMS5003;57877;39.750;-104.894;2023-12-20T15:44:06;1;1;
70436;PMS5003;57877;39.750;-104.894;2023-12-20T15:46:31;2;2;
70436;PMS5003;57877;39.750;-104.894;2023-12-20T15:48:57;0;0;
70436;PMS5003;57877;39.750;-104.894;2023-12-20T15:51:22;1;1;
70436;PMS5003;57877;39.750;-104.894;2023-12-20T15:53:47;0;0;
70436;PMS5003;57877;39.750;-104.894;2023-12-20T15:56:12;0;0;